Terminal Aerodrome Forecast
Issued by NWS Jackson, MS

Home | Current Version | Previous Version | Text Only | Print | Product List | Glossary On
Versions: 1 2 3 4 5 6 7 8 9 10 11 12 13 14 15
000
FTUS44 KJAN 181720
TAFGWO
TAF
KGWO 181720Z 1818/1918 12006KT P6SM -RA BKN015 OVC090
     FM181930 15008KT P6SM OVC012
     FM190300 17009KT P6SM OVC025
     FM191500 18014G20KT P6SM BKN015 OVC025=

USA.gov is the U.S. government's official web portal to all federal, state and local government web resources and services.